Time;durP1;ratioP1;P1;durP2;ratioP2;P2;SDS_P1;SDS_P2;PMS_P1;PMS_P2;Temp;Humidity;BMP_temperature;BMP_pressure;BME280_temperature;BME280_humidity;BME280_pressure;Samples;Min_cycle;Max_cycle;Signal;HPM_P1;HPM_P2
2023/11/27 00:00:59;;;;;;;;;;;2.90;99.90;;;1.88;100.00;97460.03;5020730;28;1633;-71
2023/11/27 00:03:26;;;;;;;;;;;2.90;99.90;;;1.86;100.00;97462.59;5003141;28;1384;-70
2023/11/27 00:05:53;;;;;;;;;;;2.80;99.90;;;1.86;100.00;97452.34;5003110;28;1577;-73
2023/11/27 00:08:20;;;;;;;;;;;2.80;99.90;;;1.95;100.00;97453.13;5020802;28;2003;-72
2023/11/27 00:10:47;;;;;;;;;;;2.70;99.90;;;1.99;100.00;97445.41;5020930;28;1705;-71
2023/11/27 00:13:14;;;;;;;;;;;2.80;99.90;;;1.90;100.00;97442.94;4998604;28;1941;-71
2023/11/27 00:15:41;;;;;;;;;;;2.80;99.90;;;1.96;100.00;97447.13;5022612;28;1476;-72
2023/11/27 00:18:08;;;;;;;;;;;2.70;99.90;;;1.76;100.00;97442.25;5020230;28;1764;-72
2023/11/27 00:20:35;;;;;;;;;;;2.80;99.90;;;1.98;100.00;97433.47;5002348;28;1590;-72
2023/11/27 00:23:02;;;;;;;;;;;2.70;99.90;;;1.83;100.00;97429.38;5018248;28;1758;-71
2023/11/27 00:25:29;;;;;;;;;;;2.70;99.90;;;1.81;100.00;97420.84;5019082;28;1542;-72
2023/11/27 00:27:56;;;;;;;;;;;2.80;99.90;;;1.72;100.00;97420.09;5005786;28;2259;-72
2023/11/27 00:30:23;;;;;;;;;;;2.80;99.90;;;1.77;100.00;97426.00;5020583;28;1759;-72
2023/11/27 00:32:50;;;;;;;;;;;2.70;99.90;;;1.70;100.00;97417.56;5020184;28;1921;-71
2023/11/27 00:35:17;;;;;;;;;;;2.70;99.90;;;1.74;100.00;97406.44;5018858;28;1886;-71
2023/11/27 00:37:43;;;;;;;;;;;2.70;99.90;;;1.80;100.00;97410.63;5018859;28;1727;-71
2023/11/27 00:40:10;;;;;;;;;;;2.70;99.90;;;1.77;100.00;97418.34;5019348;28;1495;-72
2023/11/27 00:42:37;;;;;;;;;;;2.60;99.90;;;1.76;100.00;97414.94;5017584;28;1770;-71
2023/11/27 00:45:06;;;;;;;;;;;2.70;99.90;;;1.85;100.00;97411.44;5017925;28;1691;-71
2023/11/27 00:47:34;;;;;;;;;;;2.70;99.90;;;1.75;100.00;97409.81;5016150;28;1985;-71
2023/11/27 00:50:03;;;;;;;;;;;2.70;99.90;;;1.77;100.00;97400.44;5014243;28;1643;-72
2023/11/27 00:52:30;;;;;;;;;;;2.70;99.90;;;1.67;100.00;97386.88;5016714;28;1812;-72
2023/11/27 00:54:56;;;;;;;;;;;2.70;99.90;;;1.67;100.00;97387.72;5018647;28;1734;-70
2023/11/27 00:57:23;;;;;;;;;;;2.70;99.90;;;1.75;100.00;97399.59;5005513;28;1993;-74
2023/11/27 00:59:50;;;;;;;;;;;2.70;99.90;;;1.82;100.00;97396.09;5021503;28;1507;-71
2023/11/27 01:02:17;;;;;;;;;;;2.60;99.90;;;1.66;100.00;97392.84;5020239;28;1577;-71
2023/11/27 01:04:44;;;;;;;;;;;2.70;99.90;;;1.69;100.00;97390.28;5019140;28;1584;-71
2023/11/27 01:07:14;;;;;;;;;;;2.70;99.90;;;1.72;100.00;97391.97;5016772;28;2015;-70
2023/11/27 01:09:41;;;;;;;;;;;2.70;99.90;;;1.77;100.00;97382.50;5020043;28;1505;-71
2023/11/27 01:12:08;;;;;;;;;;;2.70;99.90;;;1.76;100.00;97388.50;5023585;28;1617;-73
2023/11/27 01:14:35;;;;;;;;;;;2.70;99.90;;;1.73;100.00;97384.25;5005299;28;1530;-72
2023/11/27 01:17:01;;;;;;;;;;;2.70;99.90;;;1.85;100.00;97386.69;5020980;28;1754;-71
2023/11/27 01:19:29;;;;;;;;;;;2.70;99.90;;;1.78;100.00;97382.50;5021654;28;1549;-72
2023/11/27 01:21:56;;;;;;;;;;;2.70;99.90;;;1.74;100.00;97380.84;5017133;28;1558;-72
2023/11/27 01:24:23;;;;;;;;;;;2.70;99.90;;;1.71;100.00;97374.91;5020900;28;1656;-71
2023/11/27 01:26:51;;;;;;;;;;;2.70;99.90;;;1.73;100.00;97371.44;5016481;28;1985;-72
2023/11/27 01:29:21;;;;;;;;;;;2.70;99.90;;;1.78;100.00;97372.28;5020624;28;1967;-71
2023/11/27 01:31:49;;;;;;;;;;;2.70;99.90;;;1.74;100.00;97367.22;5004696;28;1418;-71
2023/11/27 01:34:17;;;;;;;;;;;2.70;99.90;;;1.72;100.00;97369.78;5010445;28;1454;-71
2023/11/27 01:36:44;;;;;;;;;;;2.70;99.90;;;1.59;100.00;97358.81;5023404;28;1406;-73
2023/11/27 01:39:11;;;;;;;;;;;2.70;99.90;;;1.68;100.00;97370.66;5022650;28;1611;-71
2023/11/27 01:41:38;;;;;;;;;;;2.60;99.90;;;1.74;100.00;97362.09;5023917;28;1587;-73
2023/11/27 01:44:05;;;;;;;;;;;2.70;99.90;;;1.62;100.00;97348.56;5023079;28;1562;-71
2023/11/27 01:46:32;;;;;;;;;;;2.70;99.90;;;1.67;100.00;97340.84;5021780;28;1651;-71
2023/11/27 01:49:00;;;;;;;;;;;2.70;99.90;;;1.65;100.00;97342.56;5022787;28;1999;-71
2023/11/27 01:51:27;;;;;;;;;;;2.60;99.90;;;1.73;100.00;97334.78;5022373;28;1662;-71
2023/11/27 01:53:57;;;;;;;;;;;2.60;99.90;;;1.56;100.00;97334.97;5009963;28;1551;-71
2023/11/27 01:56:25;;;;;;;;;;;2.60;99.90;;;1.53;100.00;97329.88;5023754;28;1485;-72
2023/11/27 01:58:55;;;;;;;;;;;2.70;99.90;;;1.49;100.00;97321.41;5022352;28;1422;-71
2023/11/27 02:01:22;;;;;;;;;;;2.60;99.90;;;1.59;100.00;97312.75;5002925;28;1547;-73
2023/11/27 02:03:49;;;;;;;;;;;2.60;99.90;;;1.53;100.00;97309.41;5004871;28;1543;-71
2023/11/27 02:06:16;;;;;;;;;;;2.60;99.90;;;1.55;100.00;97313.69;5024772;28;2003;-71
2023/11/27 02:08:43;;;;;;;;;;;2.50;99.90;;;1.46;100.00;97303.56;5022977;28;1979;-72
2023/11/27 02:11:10;;;;;;;;;;;2.50;99.90;;;1.38;100.00;97303.63;5023996;28;1594;-71
2023/11/27 02:13:37;;;;;;;;;;;2.50;99.90;;;1.45;100.00;97322.31;5008677;28;1785;-72
2023/11/27 02:16:04;;;;;;;;;;;2.50;99.90;;;1.61;100.00;97311.03;5005649;28;1565;-71
2023/11/27 02:18:31;;;;;;;;;;;2.50;99.90;;;1.45;100.00;97304.41;5000051;28;1625;-72
2023/11/27 02:21:02;;;;;;;;;;;2.50;99.90;;;1.57;100.00;97296.56;5006220;28;1632;-71
2023/11/27 02:23:29;;;;;;;;;;;2.50;99.90;;;1.45;100.00;97295.00;5023822;28;1652;-71
2023/11/27 02:25:56;;;;;;;;;;;2.50;99.90;;;1.41;100.00;97285.66;5004384;28;1680;-71
2023/11/27 02:28:23;;;;;;;;;;;2.50;99.90;;;1.42;100.00;97281.44;5020161;28;1977;-71
2023/11/27 02:30:50;;;;;;;;;;;2.40;99.90;;;1.32;100.00;97283.22;5018475;28;1560;-71
2023/11/27 02:33:17;;;;;;;;;;;2.40;99.90;;;1.43;100.00;97286.50;5004908;28;1391;-73
2023/11/27 02:35:44;;;;;;;;;;;2.50;99.90;;;1.37;100.00;97278.03;5019345;28;1619;-71
2023/11/27 02:38:10;;;;;;;;;;;2.50;99.90;;;1.38;100.00;97272.94;5020465;28;1548;-71
2023/11/27 02:40:37;;;;;;;;;;;2.40;99.90;;;1.46;100.00;97263.47;5021399;28;1464;-72
2023/11/27 02:43:04;;;;;;;;;;;2.40;99.90;;;1.39;100.00;97258.44;5020161;28;1445;-71
2023/11/27 02:45:33;;;;;;;;;;;2.40;99.90;;;1.34;100.00;97262.75;5009032;28;1533;-71
2023/11/27 02:48:00;;;;;;;;;;;2.40;99.90;;;1.41;100.00;97254.13;5017523;28;1987;-73
2023/11/27 02:50:27;;;;;;;;;;;2.40;99.90;;;1.30;100.00;97255.97;5021170;28;1548;-72
2023/11/27 02:52:55;;;;;;;;;;;2.40;99.90;;;1.32;100.00;97249.97;5021790;28;1375;-71
2023/11/27 02:55:22;;;;;;;;;;;2.40;99.90;;;1.36;100.00;97245.69;5004293;28;1551;-71
2023/11/27 02:57:49;;;;;;;;;;;2.40;99.90;;;1.40;100.00;97248.19;5017119;28;1641;-71
2023/11/27 03:00:18;;;;;;;;;;;2.40;99.90;;;1.51;100.00;97242.13;5014681;28;1521;-71
2023/11/27 03:02:45;;;;;;;;;;;2.40;99.90;;;1.40;100.00;97243.06;5023557;28;1485;-72
2023/11/27 03:05:13;;;;;;;;;;;2.40;99.90;;;1.35;100.00;97237.19;5005326;28;1542;-71
2023/11/27 03:07:39;;;;;;;;;;;2.40;99.90;;;1.37;100.00;97230.34;5020971;28;1970;-71
2023/11/27 03:10:08;;;;;;;;;;;2.40;99.90;;;1.40;100.00;97232.84;5021824;28;1587;-71
2023/11/27 03:12:36;;;;;;;;;;;2.40;99.90;;;1.25;100.00;97220.22;5022538;28;1554;-73
2023/11/27 03:15:05;;;;;;;;;;;2.40;99.90;;;1.38;100.00;97218.38;5021578;28;1631;-71
2023/11/27 03:17:32;;;;;;;;;;;2.40;99.90;;;1.30;100.00;97223.59;5002278;28;1537;-71
2023/11/27 03:19:59;;;;;;;;;;;2.30;99.90;;;1.40;100.00;97216.66;5019952;28;1551;-72
2023/11/27 03:22:26;;;;;;;;;;;2.40;99.90;;;1.28;100.00;97214.22;5020795;28;1619;-71
2023/11/27 03:24:53;;;;;;;;;;;2.30;99.90;;;1.27;100.00;97210.00;5004720;28;1769;-71
2023/11/27 03:27:19;;;;;;;;;;;2.30;99.90;;;1.24;100.00;97208.31;5019538;28;1922;-71
2023/11/27 03:29:46;;;;;;;;;;;2.30;99.90;;;1.28;100.00;97202.31;5022824;28;1567;-71
2023/11/27 03:32:14;;;;;;;;;;;2.30;99.90;;;1.27;100.00;97198.03;5020412;28;1473;-71
2023/11/27 03:34:43;;;;;;;;;;;2.30;99.90;;;1.32;100.00;97196.28;5022510;28;1386;-72
2023/11/27 03:37:10;;;;;;;;;;;2.30;99.90;;;1.31;100.00;97193.75;5018067;28;1600;-71
2023/11/27 03:39:37;;;;;;;;;;;2.30;99.90;;;1.26;100.00;97196.38;5018846;28;1620;-72
2023/11/27 03:42:04;;;;;;;;;;;2.30;99.90;;;1.27;100.00;97189.53;5021405;28;1557;-72
2023/11/27 03:44:31;;;;;;;;;;;2.30;99.90;;;1.27;100.00;97179.31;5019729;28;1358;-71
2023/11/27 03:46:57;;;;;;;;;;;2.30;99.90;;;1.13;100.00;97185.44;5020154;28;2013;-71
2023/11/27 03:49:24;;;;;;;;;;;2.30;99.90;;;1.21;100.00;97177.69;5018548;28;2011;-71
2023/11/27 03:51:51;;;;;;;;;;;2.30;99.90;;;1.11;100.00;97179.47;5019916;28;1470;-72
2023/11/27 03:54:19;;;;;;;;;;;2.20;99.90;;;1.11;100.00;97174.38;5002786;28;1527;-71
2023/11/27 03:56:46;;;;;;;;;;;2.20;99.90;;;1.21;100.00;97167.47;5018767;28;1493;-72
2023/11/27 03:59:13;;;;;;;;;;;2.20;99.90;;;1.19;100.00;97172.59;5015393;28;1548;-71
2023/11/27 04:01:40;;;;;;;;;;;2.20;99.90;;;1.17;100.00;97164.09;5018021;28;1746;-72
2023/11/27 04:04:07;;;;;;;;;;;2.20;99.90;;;1.14;100.00;97165.81;5017145;28;1565;-71
2023/11/27 04:06:34;;;;;;;;;;;2.20;99.90;;;1.18;100.00;97160.66;5017396;28;1523;-71
2023/11/27 04:09:01;;;;;;;;;;;2.20;99.90;;;1.15;100.00;97158.13;5018595;28;1958;-71
2023/11/27 04:11:28;;;;;;;;;;;2.20;99.90;;;1.21;100.00;97155.53;5014721;28;1614;-72
2023/11/27 04:13:55;;;;;;;;;;;2.20;99.90;;;1.20;100.00;97150.41;5019122;28;1560;-70
2023/11/27 04:16:22;;;;;;;;;;;2.20;99.90;;;1.14;100.00;97143.69;5005975;28;1557;-72
2023/11/27 04:18:49;;;;;;;;;;;2.20;99.90;;;1.15;100.00;97145.34;5017674;28;1620;-72
2023/11/27 04:21:19;;;;;;;;;;;2.20;99.90;;;1.22;100.00;97144.41;5017989;28;1497;-72
2023/11/27 04:23:47;;;;;;;;;;;2.10;99.90;;;1.21;100.00;97132.50;5016413;28;1556;-72
2023/11/27 04:26:14;;;;;;;;;;;2.10;99.90;;;1.25;100.00;97136.72;5016041;28;1497;-72
2023/11/27 04:28:42;;;;;;;;;;;2.10;99.90;;;1.24;100.00;97134.19;5016305;28;1990;-73
2023/11/27 04:31:09;;;;;;;;;;;2.10;99.90;;;1.23;100.00;97132.47;5019176;28;1590;-71
2023/11/27 04:33:36;;;;;;;;;;;2.10;99.90;;;1.21;100.00;97124.84;5019063;28;1485;-72
2023/11/27 04:36:04;;;;;;;;;;;2.10;99.90;;;1.25;100.00;97120.50;5017496;28;1556;-71
2023/11/27 04:38:31;;;;;;;;;;;2.10;99.90;;;1.24;100.00;97122.22;5019593;28;1545;-70
2023/11/27 04:40:59;;;;;;;;;;;2.20;99.90;;;1.19;100.00;97124.00;5004887;28;1434;-72
2023/11/27 04:43:25;;;;;;;;;;;2.20;99.90;;;1.13;100.00;97118.13;5019817;28;1623;-71
2023/11/27 04:45:52;;;;;;;;;;;2.20;99.90;;;1.23;100.00;97118.00;5023296;28;1596;-71
2023/11/27 04:48:21;;;;;;;;;;;2.20;99.90;;;1.20;100.00;97125.69;5021170;28;1977;-72
2023/11/27 04:50:48;;;;;;;;;;;2.20;99.90;;;1.18;100.00;97111.25;5021364;28;1573;-72
2023/11/27 04:53:16;;;;;;;;;;;2.10;99.90;;;1.17;100.00;97104.44;5023486;28;1641;-71
2023/11/27 04:55:43;;;;;;;;;;;2.10;99.90;;;1.14;100.00;97099.34;5005476;28;1820;-74
2023/11/27 04:58:09;;;;;;;;;;;2.10;99.90;;;1.22;100.00;97097.56;5022511;28;1615;-71
2023/11/27 05:00:36;;;;;;;;;;;2.20;99.90;;;1.26;100.00;97099.22;5022535;28;1378;-72
2023/11/27 05:03:04;;;;;;;;;;;2.10;99.90;;;1.21;100.00;97096.72;5027485;28;1427;-71
2023/11/27 05:05:33;;;;;;;;;;;2.20;99.90;;;1.12;100.00;97096.84;5003356;28;1511;-72
2023/11/27 05:08:00;;;;;;;;;;;2.20;99.90;;;1.24;100.00;97095.81;5025016;28;1934;-72
2023/11/27 05:10:28;;;;;;;;;;;2.30;99.90;;;1.23;100.00;97089.00;5023464;28;1453;-72
2023/11/27 05:12:55;;;;;;;;;;;2.10;99.90;;;1.16;100.00;97087.41;5020330;28;1445;-72
2023/11/27 05:15:22;;;;;;;;;;;2.10;99.90;;;1.14;100.00;97090.00;5020363;28;1519;-71
2023/11/27 05:17:50;;;;;;;;;;;2.10;99.90;;;1.00;100.00;97091.88;5019483;28;1653;-71
2023/11/27 05:20:17;;;;;;;;;;;2.10;99.90;;;1.18;100.00;97078.84;5021088;28;1417;-71
2023/11/27 05:22:44;;;;;;;;;;;2.10;99.90;;;1.11;100.00;97076.41;5021587;28;1574;-73
2023/11/27 05:25:11;;;;;;;;;;;2.10;99.90;;;1.05;100.00;97072.22;5009639;28;1562;-72
2023/11/27 05:27:39;;;;;;;;;;;2.10;99.90;;;1.12;100.00;97072.97;5020859;28;1910;-71
2023/11/27 05:30:06;;;;;;;;;;;2.10;99.90;;;1.03;100.00;97062.03;5007162;28;1551;-71
2023/11/27 05:32:33;;;;;;;;;;;2.10;99.90;;;1.07;100.00;97062.81;4986537;28;1745;-72
2023/11/27 05:35:00;;;;;;;;;;;2.10;99.90;;;1.11;100.00;97058.50;5021431;28;1572;-70
2023/11/27 05:37:27;;;;;;;;;;;2.10;99.90;;;1.07;100.00;97059.41;5021053;28;1516;-71
2023/11/27 05:39:54;;;;;;;;;;;2.10;99.90;;;1.08;100.00;97053.44;5021900;28;1055;-70
2023/11/27 05:42:26;;;;;;;;;;;2.10;99.90;;;1.08;100.00;97048.34;5020605;28;1588;-71
2023/11/27 05:44:59;;;;;;;;;;;2.10;99.90;;;1.17;100.00;97045.66;5020637;28;1565;-72
2023/11/27 05:47:26;;;;;;;;;;;2.20;99.90;;;1.13;100.00;97049.13;5021935;28;1383;-74
2023/11/27 05:49:53;;;;;;;;;;;2.20;99.90;;;1.16;100.00;97034.56;5020047;28;2037;-72
2023/11/27 05:52:20;;;;;;;;;;;2.10;99.90;;;1.10;100.00;97029.56;5021488;28;1627;-71
2023/11/27 05:54:47;;;;;;;;;;;2.10;99.90;;;1.14;100.00;97027.78;5023158;28;1489;-71
2023/11/27 05:57:14;;;;;;;;;;;2.10;99.90;;;1.08;100.00;97026.19;5021283;28;1414;-71
2023/11/27 05:59:41;;;;;;;;;;;2.20;99.90;;;1.04;100.00;97010.03;5002805;28;1795;-72
2023/11/27 06:02:07;;;;;;;;;;;2.20;99.90;;;1.06;100.00;97019.41;5003476;28;1692;-73
2023/11/27 06:04:34;;;;;;;;;;;2.20;99.90;;;1.03;100.00;97018.56;5022002;28;1648;-72
2023/11/27 06:07:02;;;;;;;;;;;2.20;99.90;;;1.03;100.00;97016.00;5025862;28;1972;-71
2023/11/27 06:09:29;;;;;;;;;;;2.10;99.90;;;1.10;100.00;97018.50;4989797;28;1969;-71
2023/11/27 06:11:58;;;;;;;;;;;2.20;99.90;;;1.04;100.00;97011.75;5021271;28;1486;-71
2023/11/27 06:14:25;;;;;;;;;;;2.10;99.90;;;1.15;100.00;97011.59;5020926;28;1532;-72
2023/11/27 06:16:52;;;;;;;;;;;2.10;99.90;;;1.04;100.00;97009.19;5022178;28;1603;-71
2023/11/27 06:19:19;;;;;;;;;;;2.10;99.90;;;1.10;100.00;96992.94;5026064;28;1564;-71
2023/11/27 06:21:46;;;;;;;;;;;2.20;99.90;;;1.03;100.00;96987.91;5020174;28;1647;-71
2023/11/27 06:24:13;;;;;;;;;;;2.20;99.90;;;1.14;100.00;96981.78;5023025;28;1584;-71
2023/11/27 06:26:39;;;;;;;;;;;2.20;99.90;;;1.10;100.00;96995.50;5022234;28;1497;-72
2023/11/27 06:29:07;;;;;;;;;;;2.20;99.90;;;1.12;100.00;96991.16;5021308;28;1902;-71
2023/11/27 06:31:35;;;;;;;;;;;2.10;99.90;;;1.10;100.00;96986.09;5022913;28;1493;-71
2023/11/27 06:34:02;;;;;;;;;;;2.10;99.90;;;1.07;100.00;96993.78;5020932;28;1555;-71
2023/11/27 06:36:29;;;;;;;;;;;2.20;99.90;;;1.09;100.00;96981.00;5004372;28;1669;-71
2023/11/27 06:38:55;;;;;;;;;;;2.20;99.90;;;1.01;100.00;96994.75;5021182;28;1583;-71
2023/11/27 06:41:25;;;;;;;;;;;2.10;99.90;;;1.09;100.00;96975.91;5021308;28;1900;-71
2023/11/27 06:43:52;;;;;;;;;;;2.10;99.90;;;1.08;100.00;96979.34;5023988;28;1592;-71
2023/11/27 06:46:18;;;;;;;;;;;2.10;99.90;;;1.07;100.00;96963.13;5021790;28;1062;-71
2023/11/27 06:48:46;;;;;;;;;;;2.10;99.90;;;1.06;100.00;96963.16;5021518;28;1906;-71
2023/11/27 06:51:14;;;;;;;;;;;2.10;99.90;;;1.15;100.00;96966.44;5022535;28;1547;-71
2023/11/27 06:53:41;;;;;;;;;;;2.10;99.90;;;1.05;100.00;96957.22;5006431;28;1375;-71
2023/11/27 06:56:09;;;;;;;;;;;2.10;99.90;;;1.02;100.00;96947.03;5005436;28;1682;-72
2023/11/27 06:58:36;;;;;;;;;;;2.10;99.90;;;1.10;100.00;96944.38;5025219;28;1532;-71
2023/11/27 07:01:09;;;;;;;;;;;2.10;99.90;;;1.03;100.00;96943.63;5022559;28;1285;-71
2023/11/27 07:03:39;;;;;;;;;;;2.10;99.90;;;1.06;100.00;96940.16;5019100;28;1370;-71
2023/11/27 07:06:08;;;;;;;;;;;2.10;99.90;;;1.14;100.00;96933.22;5019012;28;1002;-72
2023/11/27 07:08:34;;;;;;;;;;;2.20;99.90;;;1.09;100.00;96932.44;5024073;28;1987;-71
2023/11/27 07:11:02;;;;;;;;;;;2.10;99.90;;;1.09;100.00;96922.22;5020663;28;1743;-71
2023/11/27 07:13:29;;;;;;;;;;;2.20;99.90;;;1.02;100.00;96919.75;5020960;28;1310;-71
2023/11/27 07:15:56;;;;;;;;;;;2.10;99.90;;;1.14;100.00;96910.19;5014788;28;1456;-72
2023/11/27 07:18:23;;;;;;;;;;;2.10;99.90;;;1.08;100.00;96916.28;5020797;28;1453;-71
2023/11/27 07:21:03;;;;;;;;;;;2.20;99.90;;;1.14;100.00;96911.06;5011387;28;1061;-71
2023/11/27 07:23:31;;;;;;;;;;;2.20;99.90;;;1.06;100.00;96906.94;5023112;28;1576;-71
2023/11/27 07:25:58;;;;;;;;;;;2.20;99.90;;;1.07;100.00;96904.34;5019770;28;1552;-71
2023/11/27 07:28:25;;;;;;;;;;;2.20;99.90;;;1.14;100.00;96911.06;5003722;28;1902;-71
2023/11/27 07:30:53;;;;;;;;;;;2.20;99.90;;;1.12;100.00;96897.47;5026719;28;1604;-72
2023/11/27 07:33:22;;;;;;;;;;;2.20;99.90;;;1.15;100.00;96889.75;5008270;28;1560;-71
2023/11/27 07:35:50;;;;;;;;;;;2.20;99.90;;;1.20;100.00;96895.63;5019345;28;1676;-72
2023/11/27 07:38:16;;;;;;;;;;;2.20;99.90;;;1.19;100.00;96881.16;5016386;28;1501;-71
2023/11/27 07:40:43;;;;;;;;;;;2.30;99.90;;;1.24;100.00;96884.47;5001695;28;1502;-73
2023/11/27 07:43:10;;;;;;;;;;;2.30;99.90;;;1.17;100.00;96877.78;5022558;28;1380;-72
2023/11/27 07:45:38;;;;;;;;;;;2.30;99.90;;;1.32;100.00;96881.78;4997852;28;1446;-75
2023/11/27 07:48:05;;;;;;;;;;;2.20;99.90;;;1.28;100.00;96874.19;5004739;28;1596;-72
2023/11/27 07:50:35;;;;;;;;;;;2.30;99.90;;;1.36;100.00;96859.56;5016262;28;2203;-72
2023/11/27 07:53:03;;;;;;;;;;;2.20;99.90;;;1.30;100.00;96862.22;5018137;28;1387;-71
2023/11/27 07:55:32;;;;;;;;;;;2.20;99.90;;;1.22;100.00;96855.53;5015207;28;1537;-73
2023/11/27 07:58:00;;;;;;;;;;;2.20;99.90;;;1.24;100.00;96841.00;5020024;28;1214;-71
2023/11/27 08:00:27;;;;;;;;;;;2.20;99.90;;;1.34;100.00;96849.34;5016382;28;1556;-71
2023/11/27 08:02:55;;;;;;;;;;;2.20;99.90;;;1.28;100.00;96853.72;5014617;28;1529;-71
2023/11/27 08:05:24;;;;;;;;;;;2.30;99.90;;;1.42;100.00;96841.56;5019049;28;1475;-74
2023/11/27 08:07:51;;;;;;;;;;;2.30;99.90;;;1.36;100.00;96842.50;5016691;28;1639;-72
2023/11/27 08:10:19;;;;;;;;;;;2.30;99.90;;;1.36;100.00;96834.84;5016034;28;2009;-72
2023/11/27 08:12:47;;;;;;;;;;;2.40;99.90;;;1.38;100.00;96835.66;5018403;28;1372;-71
2023/11/27 08:15:22;;;;;;;;;;;2.40;99.90;;;1.32;100.00;96848.53;5018548;28;1627;-72
2023/11/27 08:17:49;;;;;;;;;;;2.40;99.90;;;1.38;100.00;96832.25;5016370;28;1599;-72
2023/11/27 08:20:17;;;;;;;;;;;2.40;99.90;;;1.44;100.00;96840.66;5018908;28;1536;-72
2023/11/27 08:22:44;;;;;;;;;;;2.30;99.90;;;1.35;100.00;96852.78;5000400;28;1693;-73
2023/11/27 08:25:11;;;;;;;;;;;2.30;99.90;;;1.31;100.00;96834.09;5015261;28;1548;-71
2023/11/27 08:27:42;;;;;;;;;;;2.30;99.90;;;1.27;100.00;96835.00;5016028;28;1564;-73
2023/11/27 08:30:11;;;;;;;;;;;2.40;99.90;;;1.17;100.00;96834.31;5003238;28;1898;-72
2023/11/27 08:32:45;;;;;;;;;;;2.40;99.90;;;1.28;100.00;96833.28;5019714;28;1508;-74
2023/11/27 08:35:12;;;;;;;;;;;2.30;99.90;;;1.32;100.00;96829.81;5017584;28;1545;-71
2023/11/27 08:37:39;;;;;;;;;;;2.30;99.90;;;1.31;100.00;96825.56;5018736;28;1595;-73
2023/11/27 08:40:09;;;;;;;;;;;2.30;99.90;;;1.16;100.00;96817.28;5019485;28;1580;-72
2023/11/27 08:42:37;;;;;;;;;;;2.20;99.90;;;1.17;100.00;96819.00;4997536;28;1763;-73
2023/11/27 08:45:17;;;;;;;;;;;2.30;99.90;;;1.21;100.00;96814.69;5003360;28;1514;-73
2023/11/27 08:47:52;;;;;;;;;;;2.20;99.90;;;1.30;100.00;96811.09;5019459;28;1371;-71
2023/11/27 08:50:29;;;;;;;;;;;2.20;99.90;;;1.09;100.00;96809.75;5016019;28;1968;-72
2023/11/27 08:52:57;;;;;;;;;;;2.10;99.90;;;1.10;100.00;96821.69;5019762;28;1535;-71
2023/11/27 08:55:30;;;;;;;;;;;2.10;99.90;;;1.11;100.00;96805.47;5002341;28;1445;-72
2023/11/27 08:58:03;;;;;;;;;;;2.10;99.90;;;0.99;100.00;96807.38;5016670;28;1505;-73
2023/11/27 09:00:31;;;;;;;;;;;2.10;99.90;;;0.99;100.00;96783.53;4999366;28;1446;-72
2023/11/27 09:02:59;;;;;;;;;;;2.10;99.90;;;0.91;100.00;96796.41;5018402;28;1353;-73
2023/11/27 09:05:31;;;;;;;;;;;2.00;99.90;;;0.98;100.00;96772.47;5018153;28;1649;-73
2023/11/27 09:08:04;;;;;;;;;;;2.00;99.90;;;0.93;100.00;96775.97;5016140;28;1441;-72
2023/11/27 09:10:32;;;;;;;;;;;1.90;99.90;;;0.94;100.00;96772.56;5018381;28;2261;-72
2023/11/27 09:12:59;;;;;;;;;;;2.00;99.90;;;1.03;100.00;96765.56;5020756;28;1465;-72
2023/11/27 09:15:26;;;;;;;;;;;1.90;99.90;;;0.91;100.00;96759.81;5002084;28;1378;-72
2023/11/27 09:17:53;;;;;;;;;;;1.80;99.90;;;0.84;100.00;96756.53;5019829;28;1374;-72
2023/11/27 09:20:20;;;;;;;;;;;1.90;99.90;;;0.79;100.00;96761.72;5018154;28;1433;-71
2023/11/27 09:22:46;;;;;;;;;;;1.90;99.90;;;0.74;100.00;96755.00;5016088;28;1308;-72
2023/11/27 09:25:15;;;;;;;;;;;1.80;99.90;;;0.81;100.00;96759.97;5017743;28;1528;-73
2023/11/27 09:27:42;;;;;;;;;;;1.80;99.90;;;0.88;100.00;96745.38;5017041;28;1410;-71
2023/11/27 09:30:09;;;;;;;;;;;1.80;99.90;;;0.74;100.00;96748.19;5004056;28;1906;-73
2023/11/27 09:32:37;;;;;;;;;;;1.80;99.90;;;0.64;100.00;96749.22;5021159;28;1530;-73
2023/11/27 09:35:12;;;;;;;;;;;1.80;99.90;;;0.74;100.00;96748.19;5003846;28;1566;-72
2023/11/27 09:37:39;;;;;;;;;;;1.80;99.90;;;0.59;100.00;96728.88;5002674;28;1618;-73
2023/11/27 09:40:08;;;;;;;;;;;1.70;99.90;;;0.67;100.00;96743.22;5022053;28;1611;-73
2023/11/27 09:42:35;;;;;;;;;;;1.70;99.90;;;0.62;100.00;96743.28;5004277;28;1544;-72
2023/11/27 09:45:16;;;;;;;;;;;1.60;99.90;;;0.59;100.00;96717.78;5019774;28;1516;-71
2023/11/27 09:47:48;;;;;;;;;;;1.60;99.90;;;0.64;100.00;96713.47;5020314;28;1521;-72
2023/11/27 09:50:16;;;;;;;;;;;1.70;99.90;;;0.58;100.00;96719.50;5018765;28;1942;-71
2023/11/27 09:53:13;;;;;;;;;;;1.60;99.90;;;0.53;100.00;96731.50;4988990;28;1466;-72
2023/11/27 09:55:40;;;;;;;;;;;;;;;0.56;100.00;96710.19;4988818;28;1417;-71
2023/11/27 09:58:13;;;;;;;;;;;1.60;99.90;;;0.57;100.00;96711.84;5022597;28;1656;-72
2023/11/27 10:00:42;;;;;;;;;;;;;;;0.49;100.00;96677.97;5005403;28;1787;-72
2023/11/27 10:03:09;;;;;;;;;;;1.50;99.90;;;0.51;100.00;96679.63;5004765;28;1849;-72
2023/11/27 10:05:37;;;;;;;;;;;1.60;99.90;;;0.54;100.00;96681.28;5020703;28;1334;-73
2023/11/27 10:08:04;;;;;;;;;;;1.50;99.90;;;0.45;100.00;96673.78;5019746;28;1581;-71
2023/11/27 10:10:34;;;;;;;;;;;1.50;99.90;;;0.45;100.00;96649.09;5021795;28;1906;-71
2023/11/27 10:13:03;;;;;;;;;;;1.50;99.90;;;0.48;100.00;96640.53;5019225;28;1541;-72
2023/11/27 10:15:47;;;;;;;;;;;1.60;99.90;;;0.48;100.00;96650.75;5019870;28;1560;-72
2023/11/27 10:18:19;;;;;;;;;;;1.40;99.90;;;0.49;100.00;96617.53;5021426;28;1588;-71
2023/11/27 10:20:49;;;;;;;;;;;1.60;99.90;;;0.43;100.00;96617.63;5019750;28;1560;-70
2023/11/27 10:23:16;;;;;;;;;;;1.50;99.90;;;0.47;100.00;96614.16;4999894;28;1644;-71
2023/11/27 10:25:45;;;;;;;;;;;1.50;99.90;;;0.47;100.00;96620.97;5014658;28;2468;-70
2023/11/27 10:28:12;;;;;;;;;;;1.50;99.90;;;0.43;100.00;96606.59;5021821;28;1493;-72
2023/11/27 10:30:45;;;;;;;;;;;1.50;99.90;;;0.42;100.00;96603.19;5019814;28;1906;-71
2023/11/27 10:33:12;;;;;;;;;;;1.40;99.90;;;0.47;100.00;96591.19;5022303;28;1493;-70
2023/11/27 10:35:41;;;;;;;;;;;1.50;99.90;;;0.42;100.00;96590.44;5022243;28;1146;-71
2023/11/27 10:38:17;;;;;;;;;;;1.40;99.90;;;0.50;100.00;96578.38;5025008;28;1427;-73
2023/11/27 10:40:44;;;;;;;;;;;1.40;99.90;;;0.36;100.00;96570.94;5001606;28;1464;-70
2023/11/27 10:43:11;;;;;;;;;;;1.50;99.90;;;0.40;100.00;96566.63;5016943;28;1430;-70
2023/11/27 10:45:40;;;;;;;;;;;1.50;99.90;;;0.27;100.00;96560.91;5017115;28;1532;-70
2023/11/27 10:48:08;;;;;;;;;;;1.40;99.90;;;0.31;100.00;96554.06;5021664;28;1399;-71
2023/11/27 10:50:39;;;;;;;;;;;1.40;99.90;;;0.32;100.00;96555.72;5019014;28;2004;-71
2023/11/27 10:53:07;;;;;;;;;;;1.40;99.90;;;0.15;100.00;96531.34;5025096;28;1443;-72
2023/11/27 10:55:35;;;;;;;;;;;1.30;99.90;;;0.17;100.00;96531.34;5019560;28;1434;-70
2023/11/27 10:58:03;;;;;;;;;;;1.30;99.90;;;0.18;100.00;96523.66;5024493;28;1404;-72
2023/11/27 11:00:38;;;;;;;;;;;1.30;99.90;;;0.25;100.00;96498.88;5004965;28;1161;-73
2023/11/27 11:03:14;;;;;;;;;;;1.30;99.90;;;0.18;100.00;96510.03;5002387;28;1569;-77
2023/11/27 11:05:53;;;;;;;;;;;1.30;99.90;;;0.29;100.00;96495.38;5018615;28;1376;-72
2023/11/27 11:08:23;;;;;;;;;;;1.30;99.90;;;0.31;100.00;96513.22;5021625;28;1376;-73
2023/11/27 11:10:53;;;;;;;;;;;1.30;99.90;;;0.18;100.00;96499.81;5011450;28;1930;-71
2023/11/27 11:13:22;;;;;;;;;;;1.30;99.90;;;0.16;100.00;96459.06;5002876;28;1474;-72
2023/11/27 11:15:52;;;;;;;;;;;1.30;99.90;;;0.19;100.00;96479.41;5016491;28;999;-73
2023/11/27 11:18:48;;;;;;;;;;;1.20;99.90;;;0.24;100.00;96486.97;5020312;28;1083;-72
2023/11/27 11:21:21;;;;;;;;;;;1.20;99.90;;;0.13;100.00;96463.34;5021777;28;1442;-74
2023/11/27 11:24:08;;;;;;;;;;;1.20;99.90;;;0.16;100.00;96473.50;5022252;28;1002;-73
2023/11/27 11:27:01;;;;;;;;;;;1.20;99.90;;;0.10;100.00;96466.81;5021647;28;1403;-73
2023/11/27 11:29:32;;;;;;;;;;;1.20;99.90;;;0.09;100.00;96446.41;4982738;28;1906;-71
2023/11/27 11:32:04;;;;;;;;;;;1.20;99.90;;;0.05;100.00;96448.22;5019521;28;1308;-72
2023/11/27 11:34:41;;;;;;;;;;;1.10;99.90;;;0.05;100.00;96444.81;5018497;28;1388;-73
2023/11/27 11:37:11;;;;;;;;;;;1.20;99.90;;;0.05;100.00;96438.00;5004581;28;1710;-73
2023/11/27 11:39:45;;;;;;;;;;;1.10;99.90;;;0.05;100.00;96432.06;5020075;28;1490;-73